sensor_id;sensor_type;location;lat;lon;timestamp;pressure;altitude;pressure_sealevel;temperature;humidity
26657;BME280;14279;50.010;8.260;2023-07-02T00:02:21;99726.22;;;18.11;71.87
26657;BME280;14279;50.010;8.260;2023-07-02T00:04:47;99729.69;;;18.11;71.82
26657;BME280;14279;50.010;8.260;2023-07-02T00:07:13;99735.50;;;18.05;72.00
26657;BME280;14279;50.010;8.260;2023-07-02T00:09:40;99730.91;;;18.07;71.95
26657;BME280;14279;50.010;8.260;2023-07-02T00:12:05;99736.50;;;18.14;71.69
26657;BME280;14279;50.010;8.260;2023-07-02T00:14:31;99741.19;;;18.20;71.71
26657;BME280;14279;50.010;8.260;2023-07-02T00:16:56;99749.28;;;18.28;71.58
26657;BME280;14279;50.010;8.260;2023-07-02T00:19:21;99737.44;;;18.03;72.08
26657;BME280;14279;50.010;8.260;2023-07-02T00:21:47;99739.41;;;18.21;71.82
26657;BME280;14279;50.010;8.260;2023-07-02T00:24:13;99735.06;;;18.00;72.28
26657;BME280;14279;50.010;8.260;2023-07-02T00:26:38;99734.47;;;17.96;72.38
26657;BME280;14279;50.010;8.260;2023-07-02T00:29:05;99738.63;;;17.89;72.66
26657;BME280;14279;50.010;8.260;2023-07-02T00:31:31;99737.56;;;18.01;72.04
26657;BME280;14279;50.010;8.260;2023-07-02T00:33:56;99732.56;;;18.08;72.07
26657;BME280;14279;50.010;8.260;2023-07-02T00:36:22;99733.34;;;17.89;72.03
26657;BME280;14279;50.010;8.260;2023-07-02T00:38:48;99717.19;;;17.72;72.37
26657;BME280;14279;50.010;8.260;2023-07-02T00:41:14;99727.47;;;17.76;72.24
26657;BME280;14279;50.010;8.260;2023-07-02T00:43:40;99729.25;;;17.65;72.57
26657;BME280;14279;50.010;8.260;2023-07-02T00:46:15;99725.50;;;17.68;71.73
26657;BME280;14279;50.010;8.260;2023-07-02T00:48:49;99728.56;;;17.73;71.43
26657;BME280;14279;50.010;8.260;2023-07-02T00:51:20;99719.31;;;17.79;71.18
26657;BME280;14279;50.010;8.260;2023-07-02T00:53:47;99725.00;;;17.84;70.37
26657;BME280;14279;50.010;8.260;2023-07-02T00:56:13;99727.38;;;17.87;70.26
26657;BME280;14279;50.010;8.260;2023-07-02T00:58:41;99729.31;;;17.85;70.07
26657;BME280;14279;50.010;8.260;2023-07-02T01:01:12;99727.66;;;17.84;70.40
26657;BME280;14279;50.010;8.260;2023-07-02T01:03:37;99736.22;;;17.76;70.72
26657;BME280;14279;50.010;8.260;2023-07-02T01:06:02;99734.25;;;17.68;71.03
26657;BME280;14279;50.010;8.260;2023-07-02T01:08:28;99736.06;;;17.78;70.67
26657;BME280;14279;50.010;8.260;2023-07-02T01:10:53;99732.72;;;17.76;70.69
26657;BME280;14279;50.010;8.260;2023-07-02T01:13:20;99738.56;;;17.69;71.00
26657;BME280;14279;50.010;8.260;2023-07-02T01:15:47;99741.56;;;17.65;71.04
26657;BME280;14279;50.010;8.260;2023-07-02T01:18:13;99747.66;;;17.65;70.93
26657;BME280;14279;50.010;8.260;2023-07-02T01:20:39;99746.97;;;17.63;70.98
26657;BME280;14279;50.010;8.260;2023-07-02T01:23:06;99743.19;;;17.56;70.85
26657;BME280;14279;50.010;8.260;2023-07-02T01:25:31;99743.03;;;17.57;70.24
26657;BME280;14279;50.010;8.260;2023-07-02T01:28:01;99752.69;;;17.47;69.43
26657;BME280;14279;50.010;8.260;2023-07-02T01:30:27;99748.84;;;17.51;69.19
26657;BME280;14279;50.010;8.260;2023-07-02T01:32:52;99744.41;;;17.52;67.74
26657;BME280;14279;50.010;8.260;2023-07-02T01:35:18;99739.03;;;17.53;67.72
26657;BME280;14279;50.010;8.260;2023-07-02T01:37:43;99741.06;;;17.19;69.35
26657;BME280;14279;50.010;8.260;2023-07-02T01:40:09;99747.06;;;17.09;70.26
26657;BME280;14279;50.010;8.260;2023-07-02T01:42:34;99746.38;;;17.07;70.52
26657;BME280;14279;50.010;8.260;2023-07-02T01:44:59;99744.50;;;16.98;71.23
26657;BME280;14279;50.010;8.260;2023-07-02T01:47:25;99749.25;;;17.04;71.23
26657;BME280;14279;50.010;8.260;2023-07-02T01:49:50;99753.44;;;17.07;70.72
26657;BME280;14279;50.010;8.260;2023-07-02T01:52:16;99754.03;;;16.99;70.65
26657;BME280;14279;50.010;8.260;2023-07-02T01:54:41;99758.94;;;17.04;70.40
26657;BME280;14279;50.010;8.260;2023-07-02T01:57:07;99764.44;;;17.01;70.04
26657;BME280;14279;50.010;8.260;2023-07-02T01:59:32;99758.25;;;16.90;70.74
26657;BME280;14279;50.010;8.260;2023-07-02T02:01:58;99760.25;;;16.98;69.78
26657;BME280;14279;50.010;8.260;2023-07-02T02:04:23;99760.44;;;16.85;69.17
26657;BME280;14279;50.010;8.260;2023-07-02T02:06:48;99762.53;;;16.91;69.24
26657;BME280;14279;50.010;8.260;2023-07-02T02:09:13;99753.16;;;16.77;68.87
26657;BME280;14279;50.010;8.260;2023-07-02T02:11:45;99750.09;;;16.72;68.77
26657;BME280;14279;50.010;8.260;2023-07-02T02:14:11;99756.91;;;16.63;68.95
26657;BME280;14279;50.010;8.260;2023-07-02T02:16:36;99759.53;;;16.63;68.57
26657;BME280;14279;50.010;8.260;2023-07-02T02:19:02;99753.47;;;16.63;68.15
26657;BME280;14279;50.010;8.260;2023-07-02T02:21:28;99759.03;;;16.81;67.73
26657;BME280;14279;50.010;8.260;2023-07-02T02:24:15;99763.50;;;16.58;68.06
26657;BME280;14279;50.010;8.260;2023-07-02T02:26:40;99761.09;;;16.66;67.84
26657;BME280;14279;50.010;8.260;2023-07-02T02:42:31;99785.72;;;16.65;67.90
26657;BME280;14279;50.010;8.260;2023-07-02T02:44:57;99774.88;;;16.47;67.77
26657;BME280;14279;50.010;8.260;2023-07-02T02:47:22;99786.25;;;16.47;67.76
26657;BME280;14279;50.010;8.260;2023-07-02T02:49:47;99777.59;;;16.57;67.29
26657;BME280;14279;50.010;8.260;2023-07-02T02:52:12;99784.03;;;16.64;66.82
26657;BME280;14279;50.010;8.260;2023-07-02T02:54:39;99777.94;;;16.63;66.79
26657;BME280;14279;50.010;8.260;2023-07-02T02:57:05;99779.50;;;16.66;66.42
26657;BME280;14279;50.010;8.260;2023-07-02T02:59:30;99781.44;;;16.52;67.10
26657;BME280;14279;50.010;8.260;2023-07-02T03:01:55;99789.41;;;16.62;66.66
26657;BME280;14279;50.010;8.260;2023-07-02T03:04:20;99784.88;;;16.64;66.65
26657;BME280;14279;50.010;8.260;2023-07-02T03:06:49;99774.19;;;16.45;67.47
26657;BME280;14279;50.010;8.260;2023-07-02T03:12:36;99788.75;;;16.37;67.43
26657;BME280;14279;50.010;8.260;2023-07-02T03:15:02;99786.72;;;16.41;67.83
26657;BME280;14279;50.010;8.260;2023-07-02T03:17:27;99788.31;;;16.32;67.19
26657;BME280;14279;50.010;8.260;2023-07-02T03:19:52;99786.63;;;16.31;67.29
26657;BME280;14279;50.010;8.260;2023-07-02T03:22:18;99791.13;;;16.52;66.67
26657;BME280;14279;50.010;8.260;2023-07-02T03:24:43;99788.75;;;16.49;66.96
26657;BME280;14279;50.010;8.260;2023-07-02T03:27:09;99796.84;;;16.57;66.38
26657;BME280;14279;50.010;8.260;2023-07-02T03:29:34;99798.72;;;16.66;66.36
26657;BME280;14279;50.010;8.260;2023-07-02T03:32:00;99797.03;;;16.65;65.82
26657;BME280;14279;50.010;8.260;2023-07-02T03:34:26;99797.91;;;16.66;65.95
26657;BME280;14279;50.010;8.260;2023-07-02T03:36:51;99799.56;;;16.67;66.17
26657;BME280;14279;50.010;8.260;2023-07-02T03:39:16;99802.28;;;16.77;65.73
26657;BME280;14279;50.010;8.260;2023-07-02T03:41:42;99805.41;;;16.71;66.36
26657;BME280;14279;50.010;8.260;2023-07-02T03:44:08;99811.38;;;16.61;66.15
26657;BME280;14279;50.010;8.260;2023-07-02T03:46:33;99820.50;;;16.46;66.54
26657;BME280;14279;50.010;8.260;2023-07-02T03:48:58;99810.13;;;16.33;67.24
26657;BME280;14279;50.010;8.260;2023-07-02T03:51:23;99812.75;;;16.33;66.69
26657;BME280;14279;50.010;8.260;2023-07-02T03:53:49;99809.75;;;16.37;67.07
26657;BME280;14279;50.010;8.260;2023-07-02T03:56:14;99812.97;;;16.52;66.46
26657;BME280;14279;50.010;8.260;2023-07-02T03:58:40;99816.38;;;16.76;65.50
26657;BME280;14279;50.010;8.260;2023-07-02T04:01:05;99815.88;;;16.82;65.08
26657;BME280;14279;50.010;8.260;2023-07-02T04:03:30;99818.63;;;16.80;65.30
26657;BME280;14279;50.010;8.260;2023-07-02T04:05:56;99819.81;;;16.88;65.50
26657;BME280;14279;50.010;8.260;2023-07-02T04:08:21;99830.91;;;17.03;64.65
26657;BME280;14279;50.010;8.260;2023-07-02T04:10:47;99828.63;;;16.98;64.61
26657;BME280;14279;50.010;8.260;2023-07-02T04:13:12;99832.19;;;17.08;64.67
26657;BME280;14279;50.010;8.260;2023-07-02T04:15:37;99828.50;;;16.88;64.61
26657;BME280;14279;50.010;8.260;2023-07-02T04:18:02;99838.53;;;16.94;64.67
26657;BME280;14279;50.010;8.260;2023-07-02T04:20:28;99832.47;;;16.94;64.69
26657;BME280;14279;50.010;8.260;2023-07-02T04:22:53;99840.22;;;16.95;64.63
26657;BME280;14279;50.010;8.260;2023-07-02T04:25:19;99837.63;;;16.84;64.82
26657;BME280;14279;50.010;8.260;2023-07-02T04:27:44;99841.66;;;16.88;64.87
26657;BME280;14279;50.010;8.260;2023-07-02T04:30:13;99844.03;;;16.91;64.39
26657;BME280;14279;50.010;8.260;2023-07-02T04:32:39;99849.91;;;16.83;65.04
26657;BME280;14279;50.010;8.260;2023-07-02T04:35:08;99845.00;;;17.02;64.17
26657;BME280;14279;50.010;8.260;2023-07-02T04:37:34;99845.41;;;17.18;63.56
26657;BME280;14279;50.010;8.260;2023-07-02T04:39:59;99853.19;;;17.20;63.40
26657;BME280;14279;50.010;8.260;2023-07-02T04:42:26;99850.34;;;17.11;63.53
26657;BME280;14279;50.010;8.260;2023-07-02T04:44:53;99844.03;;;16.91;64.54
26657;BME280;14279;50.010;8.260;2023-07-02T04:47:19;99845.84;;;16.91;64.04
26657;BME280;14279;50.010;8.260;2023-07-02T04:49:44;99844.75;;;16.93;63.89
26657;BME280;14279;50.010;8.260;2023-07-02T04:52:09;99850.16;;;16.92;64.14
26657;BME280;14279;50.010;8.260;2023-07-02T04:54:34;99865.53;;;17.08;63.24
26657;BME280;14279;50.010;8.260;2023-07-02T04:56:59;99857.81;;;16.83;63.45
26657;BME280;14279;50.010;8.260;2023-07-02T04:59:25;99862.69;;;16.88;63.65
26657;BME280;14279;50.010;8.260;2023-07-02T05:01:50;99863.50;;;17.00;63.29
26657;BME280;14279;50.010;8.260;2023-07-02T05:04:15;99865.31;;;17.00;63.49
26657;BME280;14279;50.010;8.260;2023-07-02T05:06:41;99869.03;;;16.86;63.32
26657;BME280;14279;50.010;8.260;2023-07-02T05:09:06;99871.28;;;16.90;63.45
26657;BME280;14279;50.010;8.260;2023-07-02T05:11:31;99871.44;;;16.77;64.29
26657;BME280;14279;50.010;8.260;2023-07-02T05:13:56;99875.38;;;16.83;64.26
26657;BME280;14279;50.010;8.260;2023-07-02T05:16:22;99881.44;;;17.06;63.47
26657;BME280;14279;50.010;8.260;2023-07-02T05:18:47;99878.84;;;16.83;64.33
26657;BME280;14279;50.010;8.260;2023-07-02T05:21:12;99882.59;;;17.13;63.60
26657;BME280;14279;50.010;8.260;2023-07-02T05:23:38;99881.91;;;17.11;63.22
26657;BME280;14279;50.010;8.260;2023-07-02T05:26:04;99883.56;;;17.12;63.61
26657;BME280;14279;50.010;8.260;2023-07-02T05:28:29;99882.38;;;17.38;62.97
26657;BME280;14279;50.010;8.260;2023-07-02T05:30:55;99883.97;;;17.29;62.92
26657;BME280;14279;50.010;8.260;2023-07-02T05:33:20;99875.97;;;17.31;63.20
26657;BME280;14279;50.010;8.260;2023-07-02T05:35:47;99879.66;;;17.28;63.75
26657;BME280;14279;50.010;8.260;2023-07-02T05:38:12;99889.13;;;17.52;63.10
26657;BME280;14279;50.010;8.260;2023-07-02T05:40:37;99884.94;;;17.28;63.20
26657;BME280;14279;50.010;8.260;2023-07-02T05:43:02;99893.69;;;17.28;63.66
26657;BME280;14279;50.010;8.260;2023-07-02T05:45:28;99891.63;;;17.32;63.43
26657;BME280;14279;50.010;8.260;2023-07-02T05:47:54;99887.09;;;17.55;62.81
26657;BME280;14279;50.010;8.260;2023-07-02T05:50:19;99882.44;;;17.48;63.02
26657;BME280;14279;50.010;8.260;2023-07-02T05:52:44;99882.09;;;17.52;63.24
26657;BME280;14279;50.010;8.260;2023-07-02T05:55:09;99892.03;;;17.70;62.50
26657;BME280;14279;50.010;8.260;2023-07-02T05:57:36;99898.72;;;17.74;62.63
26657;BME280;14279;50.010;8.260;2023-07-02T06:00:02;99899.16;;;18.00;61.87
26657;BME280;14279;50.010;8.260;2023-07-02T06:02:27;99905.69;;;18.06;61.89
26657;BME280;14279;50.010;8.260;2023-07-02T06:04:52;99904.72;;;18.07;61.71
26657;BME280;14279;50.010;8.260;2023-07-02T06:07:17;99906.03;;;18.13;61.65
26657;BME280;14279;50.010;8.260;2023-07-02T06:09:42;99909.28;;;17.84;61.58
26657;BME280;14279;50.010;8.260;2023-07-02T06:12:08;99907.94;;;17.90;62.38
26657;BME280;14279;50.010;8.260;2023-07-02T06:14:33;99907.16;;;18.20;61.34
26657;BME280;14279;50.010;8.260;2023-07-02T06:16:58;99910.00;;;17.86;62.29
26657;BME280;14279;50.010;8.260;2023-07-02T06:19:25;99908.22;;;17.65;62.85
26657;BME280;14279;50.010;8.260;2023-07-02T06:21:51;99920.47;;;17.76;62.72
26657;BME280;14279;50.010;8.260;2023-07-02T06:24:16;99914.25;;;17.77;62.49
26657;BME280;14279;50.010;8.260;2023-07-02T06:26:41;99916.88;;;17.98;62.06
26657;BME280;14279;50.010;8.260;2023-07-02T06:29:07;99912.81;;;18.15;62.12
26657;BME280;14279;50.010;8.260;2023-07-02T06:31:32;99920.88;;;18.14;61.74
26657;BME280;14279;50.010;8.260;2023-07-02T06:33:57;99912.59;;;18.59;60.84
26657;BME280;14279;50.010;8.260;2023-07-02T06:36:23;99922.25;;;18.49;60.90
26657;BME280;14279;50.010;8.260;2023-07-02T06:38:48;99909.53;;;18.54;61.15
26657;BME280;14279;50.010;8.260;2023-07-02T06:41:14;99920.56;;;18.38;60.54
26657;BME280;14279;50.010;8.260;2023-07-02T06:43:43;99917.44;;;18.54;60.97
26657;BME280;14279;50.010;8.260;2023-07-02T06:46:10;99920.38;;;18.71;60.58
26657;BME280;14279;50.010;8.260;2023-07-02T06:48:36;99922.13;;;18.51;60.74
26657;BME280;14279;50.010;8.260;2023-07-02T06:51:03;99924.38;;;18.55;60.80
26657;BME280;14279;50.010;8.260;2023-07-02T06:53:29;99917.38;;;18.85;60.51
26657;BME280;14279;50.010;8.260;2023-07-02T06:55:54;99921.16;;;19.02;59.14
26657;BME280;14279;50.010;8.260;2023-07-02T06:58:22;99919.09;;;18.96;59.81
26657;BME280;14279;50.010;8.260;2023-07-02T07:00:54;99914.28;;;19.21;58.79
26657;BME280;14279;50.010;8.260;2023-07-02T07:03:20;99919.66;;;19.10;58.42
26657;BME280;14279;50.010;8.260;2023-07-02T07:05:55;99921.75;;;19.06;59.58
26657;BME280;14279;50.010;8.260;2023-07-02T07:08:24;99935.81;;;18.75;60.16
26657;BME280;14279;50.010;8.260;2023-07-02T07:10:50;99926.53;;;18.91;59.96
26657;BME280;14279;50.010;8.260;2023-07-02T07:13:15;99936.19;;;19.12;59.38
26657;BME280;14279;50.010;8.260;2023-07-02T07:15:41;99933.13;;;19.16;59.01
26657;BME280;14279;50.010;8.260;2023-07-02T07:18:16;99927.28;;;19.03;59.19
26657;BME280;14279;50.010;8.260;2023-07-02T07:20:46;99925.91;;;19.08;58.92
26657;BME280;14279;50.010;8.260;2023-07-02T07:23:11;99932.75;;;18.70;59.52
26657;BME280;14279;50.010;8.260;2023-07-02T07:25:36;99935.56;;;18.88;59.59
26657;BME280;14279;50.010;8.260;2023-07-02T07:28:01;99937.56;;;19.06;59.41
26657;BME280;14279;50.010;8.260;2023-07-02T07:30:27;99943.72;;;19.36;58.90
26657;BME280;14279;50.010;8.260;2023-07-02T07:32:52;99939.41;;;19.35;58.69
26657;BME280;14279;50.010;8.260;2023-07-02T07:35:19;99935.81;;;19.56;58.27
26657;BME280;14279;50.010;8.260;2023-07-02T07:37:46;99921.59;;;19.27;58.58
26657;BME280;14279;50.010;8.260;2023-07-02T07:40:12;99941.09;;;19.36;57.80
26657;BME280;14279;50.010;8.260;2023-07-02T07:42:37;99929.84;;;19.34;57.13
26657;BME280;14279;50.010;8.260;2023-07-02T07:45:03;99944.00;;;19.43;57.52
26657;BME280;14279;50.010;8.260;2023-07-02T07:47:29;99941.50;;;19.61;57.45
26657;BME280;14279;50.010;8.260;2023-07-02T07:49:54;99936.75;;;19.74;57.01
26657;BME280;14279;50.010;8.260;2023-07-02T07:52:20;99944.41;;;19.77;56.71
26657;BME280;14279;50.010;8.260;2023-07-02T07:54:45;99936.31;;;19.79;57.13
26657;BME280;14279;50.010;8.260;2023-07-02T07:57:10;99939.69;;;19.51;57.02
26657;BME280;14279;50.010;8.260;2023-07-02T07:59:36;99946.06;;;19.68;56.74
26657;BME280;14279;50.010;8.260;2023-07-02T08:02:01;99945.63;;;19.83;56.34
26657;BME280;14279;50.010;8.260;2023-07-02T08:04:26;99938.56;;;19.74;55.73
26657;BME280;14279;50.010;8.260;2023-07-02T08:06:51;99942.88;;;19.94;55.34
26657;BME280;14279;50.010;8.260;2023-07-02T08:09:17;99930.06;;;19.80;55.89
26657;BME280;14279;50.010;8.260;2023-07-02T08:11:42;99936.84;;;20.12;55.12
26657;BME280;14279;50.010;8.260;2023-07-02T08:14:07;99937.72;;;19.93;55.36
26657;BME280;14279;50.010;8.260;2023-07-02T08:16:42;99943.94;;;20.11;54.88
26657;BME280;14279;50.010;8.260;2023-07-02T08:19:33;99946.75;;;20.00;54.81
26657;BME280;14279;50.010;8.260;2023-07-02T08:21:58;99948.78;;;20.26;54.25
26657;BME280;14279;50.010;8.260;2023-07-02T08:24:23;99933.72;;;20.64;52.41
26657;BME280;14279;50.010;8.260;2023-07-02T08:26:49;99947.25;;;20.89;52.45
26657;BME280;14279;50.010;8.260;2023-07-02T08:29:15;99932.31;;;20.98;50.76
26657;BME280;14279;50.010;8.260;2023-07-02T08:31:43;99932.50;;;21.14;50.66
26657;BME280;14279;50.010;8.260;2023-07-02T08:34:08;99938.50;;;21.07;51.63
26657;BME280;14279;50.010;8.260;2023-07-02T08:36:34;99939.13;;;21.00;49.86
26657;BME280;14279;50.010;8.260;2023-07-02T08:38:59;99935.84;;;20.89;51.12
26657;BME280;14279;50.010;8.260;2023-07-02T08:41:24;99938.63;;;21.33;50.53
26657;BME280;14279;50.010;8.260;2023-07-02T08:43:54;99945.22;;;21.01;51.59
26657;BME280;14279;50.010;8.260;2023-07-02T08:46:19;99951.91;;;21.23;51.28
26657;BME280;14279;50.010;8.260;2023-07-02T08:48:46;99948.88;;;21.18;50.83
26657;BME280;14279;50.010;8.260;2023-07-02T08:51:12;99945.34;;;21.09;50.93
26657;BME280;14279;50.010;8.260;2023-07-02T08:53:37;99945.97;;;21.39;50.74
26657;BME280;14279;50.010;8.260;2023-07-02T08:56:03;99956.47;;;21.31;49.90
26657;BME280;14279;50.010;8.260;2023-07-02T08:58:29;99961.34;;;21.08;50.92
26657;BME280;14279;50.010;8.260;2023-07-02T09:01:07;99951.44;;;20.92;50.61
26657;BME280;14279;50.010;8.260;2023-07-02T09:06:21;99982.13;;;20.75;49.79
26657;BME280;14279;50.010;8.260;2023-07-02T09:08:46;99988.06;;;20.49;49.11
26657;BME280;14279;50.010;8.260;2023-07-02T09:11:13;99967.19;;;20.46;49.65
26657;BME280;14279;50.010;8.260;2023-07-02T09:13:43;99959.75;;;20.69;49.35
26657;BME280;14279;50.010;8.260;2023-07-02T09:19:09;99974.38;;;21.19;49.30
26657;BME280;14279;50.010;8.260;2023-07-02T09:21:48;99973.34;;;21.02;49.37
26657;BME280;14279;50.010;8.260;2023-07-02T09:24:15;99978.19;;;20.89;49.65
26657;BME280;14279;50.010;8.260;2023-07-02T09:26:52;99971.16;;;20.97;48.90
26657;BME280;14279;50.010;8.260;2023-07-02T09:29:21;99970.84;;;20.82;48.07
26657;BME280;14279;50.010;8.260;2023-07-02T09:31:49;99984.28;;;20.89;47.96
26657;BME280;14279;50.010;8.260;2023-07-02T09:34:15;99980.28;;;20.85;48.51
26657;BME280;14279;50.010;8.260;2023-07-02T09:36:41;99974.34;;;20.63;48.57
26657;BME280;14279;50.010;8.260;2023-07-02T09:39:14;99973.88;;;20.50;49.42
26657;BME280;14279;50.010;8.260;2023-07-02T09:41:41;99986.16;;;20.79;49.02
26657;BME280;14279;50.010;8.260;2023-07-02T09:44:07;99989.94;;;21.04;48.29
26657;BME280;14279;50.010;8.260;2023-07-02T09:46:56;99983.81;;;21.22;47.22
26657;BME280;14279;50.010;8.260;2023-07-02T09:49:24;99994.47;;;20.94;47.35
26657;BME280;14279;50.010;8.260;2023-07-02T09:51:50;99994.28;;;20.95;48.03
26657;BME280;14279;50.010;8.260;2023-07-02T09:54:16;99991.84;;;20.84;48.19
26657;BME280;14279;50.010;8.260;2023-07-02T09:56:43;99989.44;;;20.91;48.37
26657;BME280;14279;50.010;8.260;2023-07-02T09:59:09;99999.75;;;20.94;48.61
26657;BME280;14279;50.010;8.260;2023-07-02T10:01:40;99981.66;;;20.89;48.60
26657;BME280;14279;50.010;8.260;2023-07-02T10:04:21;99995.03;;;20.50;46.97
26657;BME280;14279;50.010;8.260;2023-07-02T10:06:54;99986.06;;;20.61;46.64
26657;BME280;14279;50.010;8.260;2023-07-02T10:09:44;99977.34;;;20.88;45.36
26657;BME280;14279;50.010;8.260;2023-07-02T10:14:42;99962.22;;;21.81;43.67
26657;BME280;14279;50.010;8.260;2023-07-02T10:17:08;99952.88;;;21.58;42.80
26657;BME280;14279;50.010;8.260;2023-07-02T10:19:36;99972.03;;;21.88;43.06
26657;BME280;14279;50.010;8.260;2023-07-02T10:22:06;99970.19;;;22.33;41.37
26657;BME280;14279;50.010;8.260;2023-07-02T10:24:34;99958.59;;;22.69;40.45
26657;BME280;14279;50.010;8.260;2023-07-02T10:27:00;99979.50;;;21.93;40.96
26657;BME280;14279;50.010;8.260;2023-07-02T10:29:29;99970.25;;;21.71;41.65
26657;BME280;14279;50.010;8.260;2023-07-02T10:31:56;99959.63;;;22.15;40.46
26657;BME280;14279;50.010;8.260;2023-07-02T10:34:32;99964.75;;;22.17;41.10
26657;BME280;14279;50.010;8.260;2023-07-02T10:37:00;99969.50;;;22.05;40.70
26657;BME280;14279;50.010;8.260;2023-07-02T10:39:27;99966.81;;;21.97;40.24
26657;BME280;14279;50.010;8.260;2023-07-02T10:42:03;99951.09;;;22.03;40.69
26657;BME280;14279;50.010;8.260;2023-07-02T10:44:29;99956.22;;;22.49;40.65
26657;BME280;14279;50.010;8.260;2023-07-02T10:46:54;99966.22;;;22.37;41.95
26657;BME280;14279;50.010;8.260;2023-07-02T10:49:20;99978.16;;;22.42;42.31
26657;BME280;14279;50.010;8.260;2023-07-02T10:52:01;99988.28;;;21.57;43.62
26657;BME280;14279;50.010;8.260;2023-07-02T10:54:38;100009.84;;;21.44;44.53
26657;BME280;14279;50.010;8.260;2023-07-02T10:57:05;99980.00;;;21.70;43.99
26657;BME280;14279;50.010;8.260;2023-07-02T10:59:30;100011.59;;;21.17;44.90
26657;BME280;14279;50.010;8.260;2023-07-02T11:01:56;99991.88;;;21.48;43.83
26657;BME280;14279;50.010;8.260;2023-07-02T11:04:49;99991.50;;;21.79;43.73
26657;BME280;14279;50.010;8.260;2023-07-02T11:07:22;99972.91;;;21.71;43.28
26657;BME280;14279;50.010;8.260;2023-07-02T11:09:51;99974.44;;;22.00;42.73
26657;BME280;14279;50.010;8.260;2023-07-02T11:12:17;99992.94;;;21.73;43.03
26657;BME280;14279;50.010;8.260;2023-07-02T11:14:42;99985.44;;;21.87;41.71
26657;BME280;14279;50.010;8.260;2023-07-02T11:17:07;100004.13;;;21.67;41.69
26657;BME280;14279;50.010;8.260;2023-07-02T11:19:33;99981.66;;;21.53;41.74
26657;BME280;14279;50.010;8.260;2023-07-02T11:21:59;99974.78;;;21.42;41.83
26657;BME280;14279;50.010;8.260;2023-07-02T11:24:34;99977.63;;;21.85;41.61
26657;BME280;14279;50.010;8.260;2023-07-02T11:27:05;99970.66;;;22.02;41.20
26657;BME280;14279;50.010;8.260;2023-07-02T11:29:32;99999.72;;;21.94;40.71
26657;BME280;14279;50.010;8.260;2023-07-02T11:32:08;99972.94;;;21.79;40.47
26657;BME280;14279;50.010;8.260;2023-07-02T11:34:34;99992.63;;;22.21;39.59
26657;BME280;14279;50.010;8.260;2023-07-02T11:37:00;99987.34;;;22.03;38.55
26657;BME280;14279;50.010;8.260;2023-07-02T11:39:26;99965.75;;;21.89;38.38
26657;BME280;14279;50.010;8.260;2023-07-02T11:41:52;99971.41;;;22.21;38.84
26657;BME280;14279;50.010;8.260;2023-07-02T11:44:17;99962.53;;;22.30;38.81
26657;BME280;14279;50.010;8.260;2023-07-02T11:46:52;99973.09;;;22.22;38.32
26657;BME280;14279;50.010;8.260;2023-07-02T11:54:22;99979.97;;;22.67;37.29
26657;BME280;14279;50.010;8.260;2023-07-02T11:56:47;99980.09;;;22.58;38.13
26657;BME280;14279;50.010;8.260;2023-07-02T11:59:13;99972.34;;;23.16;37.19
26657;BME280;14279;50.010;8.260;2023-07-02T12:01:41;99958.88;;;23.01;37.62
26657;BME280;14279;50.010;8.260;2023-07-02T12:04:06;99974.16;;;22.64;36.83
26657;BME280;14279;50.010;8.260;2023-07-02T12:06:33;99991.38;;;22.60;37.47
26657;BME280;14279;50.010;8.260;2023-07-02T12:08:58;99980.00;;;23.27;36.93
26657;BME280;14279;50.010;8.260;2023-07-02T12:11:23;99988.69;;;23.79;36.17
26657;BME280;14279;50.010;8.260;2023-07-02T12:13:48;99977.06;;;23.71;36.11
26657;BME280;14279;50.010;8.260;2023-07-02T12:16:17;99994.47;;;23.24;36.99
26657;BME280;14279;50.010;8.260;2023-07-02T12:18:43;99978.59;;;22.55;37.25
26657;BME280;14279;50.010;8.260;2023-07-02T12:21:09;99984.38;;;22.24;38.12
26657;BME280;14279;50.010;8.260;2023-07-02T12:23:34;99986.19;;;22.24;38.15
26657;BME280;14279;50.010;8.260;2023-07-02T12:30:09;100012.13;;;22.38;38.13
26657;BME280;14279;50.010;8.260;2023-07-02T12:32:58;99981.56;;;22.52;38.04
26657;BME280;14279;50.010;8.260;2023-07-02T12:42:32;99978.72;;;23.39;36.56
26657;BME280;14279;50.010;8.260;2023-07-02T12:45:39;100012.63;;;23.03;36.94
26657;BME280;14279;50.010;8.260;2023-07-02T12:48:04;99980.72;;;22.86;37.28
26657;BME280;14279;50.010;8.260;2023-07-02T12:50:30;99991.81;;;22.81;38.01
26657;BME280;14279;50.010;8.260;2023-07-02T12:52:55;99992.34;;;22.50;38.62
26657;BME280;14279;50.010;8.260;2023-07-02T12:55:20;99991.44;;;23.19;37.52
26657;BME280;14279;50.010;8.260;2023-07-02T12:57:51;99988.53;;;23.64;37.68
26657;BME280;14279;50.010;8.260;2023-07-02T13:00:17;99998.16;;;23.56;36.65
26657;BME280;14279;50.010;8.260;2023-07-02T13:02:42;99986.84;;;23.87;36.52
26657;BME280;14279;50.010;8.260;2023-07-02T13:05:08;100001.00;;;23.47;36.95
26657;BME280;14279;50.010;8.260;2023-07-02T13:07:36;99988.53;;;23.80;36.30
26657;BME280;14279;50.010;8.260;2023-07-02T13:10:10;100000.66;;;23.99;35.57
26657;BME280;14279;50.010;8.260;2023-07-02T13:12:36;99986.19;;;24.10;35.70
26657;BME280;14279;50.010;8.260;2023-07-02T13:15:01;99990.69;;;23.44;36.35
26657;BME280;14279;50.010;8.260;2023-07-02T13:17:26;99987.72;;;23.63;36.34
26657;BME280;14279;50.010;8.260;2023-07-02T13:19:52;99986.56;;;23.06;36.80
26657;BME280;14279;50.010;8.260;2023-07-02T13:22:17;100014.56;;;23.35;36.64
26657;BME280;14279;50.010;8.260;2023-07-02T13:24:42;100011.25;;;22.90;36.99
26657;BME280;14279;50.010;8.260;2023-07-02T13:27:14;100014.31;;;23.20;36.72
26657;BME280;14279;50.010;8.260;2023-07-02T13:29:40;99998.41;;;23.20;36.67
26657;BME280;14279;50.010;8.260;2023-07-02T13:32:06;100027.44;;;23.14;36.99
26657;BME280;14279;50.010;8.260;2023-07-02T13:34:31;100001.81;;;23.47;37.06
26657;BME280;14279;50.010;8.260;2023-07-02T13:36:57;100007.94;;;23.72;36.54
26657;BME280;14279;50.010;8.260;2023-07-02T13:39:22;99984.03;;;23.39;36.88
26657;BME280;14279;50.010;8.260;2023-07-02T13:41:47;99992.00;;;23.56;36.52